Time;durP1;ratioP1;P1;durP2;ratioP2;P2;SDS_P1;SDS_P2;PMS_P1;PMS_P2;Temp;Humidity;BMP_temperature;BMP_pressure;BME280_temperature;BME280_humidity;BME280_pressure;Samples;Min_cycle;Max_cycle;Signal;HPM_P1;HPM_P2
2022/04/12 00:00:13;;;;;;;2.00;1.40;;;;;;;18.74;40.50;96942.06;10210682;29;20052;-58
2022/04/12 00:05:40;;;;;;;2.20;1.25;;;;;;;18.73;40.42;96945.09;10207092;29;20055;-58
2022/04/12 00:11:00;;;;;;;2.40;1.60;;;;;;;18.72;40.48;96944.28;10196871;28;20044;-59
2022/04/12 00:16:20;;;;;;;2.33;1.30;;;;;;;18.71;40.71;96942.69;10202454;29;20059;-58
2022/04/12 00:21:39;;;;;;;3.30;1.60;;;;;;;18.71;40.56;96942.69;10183847;29;20048;-58
2022/04/12 00:26:59;;;;;;;2.75;1.70;;;;;;;18.70;40.74;96935.72;10200286;28;20059;-58
2022/04/12 00:32:18;;;;;;;2.30;1.50;;;;;;;18.69;40.39;96946.81;10166124;29;20056;-58
2022/04/12 00:37:37;;;;;;;2.75;1.50;;;;;;;18.68;40.51;96937.94;10209433;29;20055;-58
2022/04/12 00:43:02;;;;;;;2.30;1.45;;;;;;;18.67;40.50;96936.34;10212412;28;20138;-59
2022/04/12 00:48:22;;;;;;;3.15;1.38;;;;;;;18.66;40.45;96945.56;10181827;29;20051;-59
2022/04/12 00:53:41;;;;;;;1.45;1.08;;;;;;;18.65;40.42;96933.16;10198822;29;20091;-59
2022/04/12 00:59:05;;;;;;;4.07;1.45;;;;;;;18.64;40.40;96936.97;10235915;28;20035;-58
2022/04/12 01:04:25;;;;;;;1.90;1.20;;;;;;;18.63;40.38;96940.00;10197283;29;20075;-58
2022/04/12 01:09:45;;;;;;;1.98;1.23;;;;;;;18.61;40.39;96937.59;10193499;29;20059;-58
2022/04/12 01:15:11;;;;;;;2.03;1.25;;;;;;;18.62;40.26;96933.00;10190972;29;20102;-58
2022/04/12 01:20:31;;;;;;;2.03;1.20;;;;;;;18.61;40.36;96936.81;10184467;29;20056;-58
2022/04/12 01:25:51;;;;;;;1.85;1.40;;;;;;;18.60;40.42;96941.38;10173327;29;20056;-58
2022/04/12 01:31:11;;;;;;;2.55;1.20;;;;;;;18.59;40.39;96942.50;10208294;28;20044;-58
2022/04/12 01:36:31;;;;;;;2.60;1.40;;;;;;;18.57;40.40;96948.22;10204171;29;20078;-58
2022/04/12 01:41:50;;;;;;;3.63;1.60;;;;;;;18.56;40.22;96946.66;10220542;29;20047;-58
2022/04/12 01:47:09;;;;;;;2.15;1.60;;;;;;;18.55;40.22;96938.84;10191163;29;20055;-58
2022/04/12 01:52:29;;;;;;;2.08;1.60;;;;;;;18.55;40.38;96938.84;10203714;29;20107;-58
2022/04/12 01:57:50;;;;;;;2.08;1.40;;;;;;;18.54;40.14;96937.25;10190288;29;20432;-58
2022/04/12 02:03:10;;;;;;;2.03;1.48;;;;;;;18.52;40.19;96937.59;10206512;29;20056;-58
2022/04/12 02:08:29;;;;;;;1.98;1.25;;;;;;;18.53;40.14;96933.78;10225839;28;20044;-58
2022/04/12 02:13:49;;;;;;;2.55;1.38;;;;;;;18.51;40.22;96929.81;10206863;28;20044;-59
2022/04/12 02:19:08;;;;;;;2.80;1.38;;;;;;;18.50;40.18;96930.91;10222832;28;20503;-58
2022/04/12 02:24:27;;;;;;;2.42;1.40;;;;;;;18.50;40.16;96931.72;10234008;28;20055;-58
2022/04/12 02:29:47;;;;;;;2.17;1.60;;;;;;;18.49;40.11;96929.31;10194948;29;20060;-58
2022/04/12 02:35:07;;;;;;;2.45;1.50;;;;;;;18.48;40.26;96919.63;10213385;29;20127;-58
2022/04/12 02:40:27;;;;;;;1.80;1.30;;;;;;;18.46;40.12;96922.63;10215292;29;20087;-58
2022/04/12 02:45:47;;;;;;;1.75;1.33;;;;;;;18.46;40.30;96924.53;10205496;28;20051;-58
2022/04/12 02:51:06;;;;;;;1.88;1.27;;;;;;;18.45;40.03;96931.84;10223851;29;20141;-58
2022/04/12 02:56:26;;;;;;;1.70;1.30;;;;;;;18.44;40.21;96937.56;10191772;29;20052;-58
2022/04/12 03:01:45;;;;;;;2.17;1.40;;;;;;;18.43;40.27;96941.38;10202925;29;20048;-58
2022/04/12 03:07:04;;;;;;;1.50;1.20;;;;;;;18.41;40.08;96927.41;10187100;29;20059;-58
2022/04/12 03:12:23;;;;;;;1.67;1.30;;;;;;;18.41;40.20;96927.41;10195058;29;20511;-58
2022/04/12 03:17:43;;;;;;;1.58;1.20;;;;;;;18.41;40.28;96938.19;10201797;29;20051;-58
2022/04/12 03:23:02;;;;;;;1.90;1.40;;;;;;;18.38;40.29;96924.22;10211866;28;20047;-58
2022/04/12 03:28:22;;;;;;;3.88;1.35;;;;;;;18.38;40.12;96926.09;10191836;29;20056;-58
2022/04/12 03:33:41;;;;;;;1.48;1.33;;;;;;;18.37;39.99;96944.19;10204322;29;20052;-56
2022/04/12 03:39:01;;;;;;;1.92;1.20;;;;;;;18.36;40.07;96944.50;10200245;29;20052;-58
2022/04/12 03:44:20;;;;;;;2.28;1.30;;;;;;;18.35;40.06;96940.25;10217559;29;20056;-58
2022/04/12 03:49:40;;;;;;;2.22;1.27;;;;;;;18.35;39.99;96951.03;10203750;29;20048;-58
2022/04/12 03:55:00;;;;;;;1.35;1.10;;;;;;;18.35;40.07;96941.03;10208297;29;20048;-58
2022/04/12 04:00:19;;;;;;;1.60;1.20;;;;;;;18.33;40.05;96937.06;10207738;29;20060;-58
2022/04/12 04:05:38;;;;;;;1.85;1.25;;;;;;;18.34;40.00;96944.03;10203410;29;20546;-58
2022/04/12 04:10:57;;;;;;;1.65;1.30;;;;;;;18.32;39.90;96944.34;10207849;29;20043;-58
2022/04/12 04:16:17;;;;;;;1.88;1.17;;;;;;;18.33;39.95;96943.25;10208204;29;20107;-57
2022/04/12 04:21:37;;;;;;;1.40;1.30;;;;;;;18.33;40.06;96945.16;10206322;29;20406;-58
2022/04/12 04:26:56;;;;;;;1.33;1.20;;;;;;;18.33;40.13;96943.25;10205109;29;20068;-58
2022/04/12 04:32:16;;;;;;;1.90;1.25;;;;;;;18.34;40.07;96944.81;10204874;29;20052;-58
2022/04/12 04:37:47;;;;;;;1.30;1.20;;;;;;;18.36;40.06;96948.00;10213334;29;20055;-57
2022/04/12 04:43:07;;;;;;;1.63;1.30;;;;;;;18.38;40.24;96945.00;10188940;29;20055;-58
2022/04/12 04:48:27;;;;;;;1.63;1.40;;;;;;;18.42;40.56;96943.25;10223491;28;20043;-59
2022/04/12 04:53:55;;;;;;;1.42;1.20;;;;;;;18.45;40.40;96947.25;10200339;28;20103;-58
2022/04/12 04:59:15;;;;;;;;;;;;;;;18.48;40.57;96952.00;10226764;29;20111;-58
2022/04/12 05:04:37;;;;;;;1.60;1.17;;;;;;;18.52;40.49;96966.44;10197496;29;20860;-58
2022/04/12 05:09:56;;;;;;;1.83;1.35;;;;;;;18.56;40.58;96962.03;10202589;29;20056;-57
2022/04/12 05:15:16;;;;;;;1.55;1.38;;;;;;;18.60;40.61;96971.06;10196937;29;20047;-59
2022/04/12 05:20:35;;;;;;;1.40;1.30;;;;;;;18.64;40.60;96977.47;10196818;29;20060;-58
2022/04/12 05:25:55;;;;;;;2.90;1.40;;;;;;;18.70;40.78;96988.88;10203162;29;20051;-58
2022/04/12 05:31:15;;;;;;;1.70;1.27;;;;;;;18.75;40.83;96997.63;10233652;28;20476;-58
2022/04/12 05:36:35;;;;;;;3.38;1.38;;;;;;;18.81;41.19;96997.53;10200211;29;20115;-57
2022/04/12 05:41:54;;;;;;;2.03;1.35;;;;;;;18.87;41.18;96998.97;10190646;29;20533;-58
2022/04/12 05:47:14;;;;;;;3.35;1.35;;;;;;;18.92;41.38;97006.91;10204112;29;20059;-58
2022/04/12 05:52:34;;;;;;;1.95;1.27;;;;;;;18.95;41.31;97007.09;10198124;29;20511;-56
2022/04/12 05:58:01;;;;;;;2.40;1.50;;;;;;;18.99;41.29;97011.84;10225272;29;20526;-55
2022/04/12 06:03:21;;;;;;;2.15;1.30;;;;;;;19.03;41.20;97024.38;10186393;29;20459;-57
2022/04/12 06:08:41;;;;;;;3.75;1.60;;;;;;;19.06;41.21;97029.16;10180917;29;20383;-57
2022/04/12 06:14:01;;;;;;;3.00;1.58;;;;;;;19.10;41.22;97018.53;10194396;29;20107;-58
2022/04/12 06:19:20;;;;;;;2.85;1.38;;;;;;;19.11;41.28;97026.34;10195605;29;20459;-57
2022/04/12 06:24:42;;;;;;;2.70;1.10;;;;;;;19.15;41.46;97043.50;10189657;29;20429;-57
2022/04/12 06:30:13;;;;;;;1.52;1.35;;;;;;;19.17;41.64;97041.28;10197393;29;20507;-56
2022/04/12 06:35:33;;;;;;;2.15;1.30;;;;;;;19.18;40.96;97042.06;10201371;29;20056;-59
2022/04/12 06:40:52;;;;;;;13.02;4.40;;;;;;;19.17;37.86;97043.97;10210713;29;20044;-59
2022/04/12 06:46:12;;;;;;;16.33;4.50;;;;;;;19.15;38.79;97030.00;10217554;28;20039;-56
2022/04/12 06:51:31;;;;;;;16.27;5.75;;;;;;;19.16;39.25;97047.78;10187275;29;20062;-57
2022/04/12 06:56:51;;;;;;;17.55;5.93;;;;;;;19.19;39.30;97037.44;10191624;29;20075;-57
2022/04/12 07:02:10;;;;;;;19.05;5.95;;;;;;;19.19;39.32;97040.97;10197684;29;20047;-58
2022/04/12 07:07:30;;;;;;;17.58;5.80;;;;;;;19.23;39.52;97047.31;10193656;29;20063;-57
2022/04/12 07:12:53;;;;;;;17.88;5.80;;;;;;;19.25;39.47;97038.88;10213700;29;20103;-58
2022/04/12 07:18:13;;;;;;;13.20;5.85;;;;;;;19.28;39.59;97051.75;10218763;29;20135;-57
2022/04/12 07:23:36;;;;;;;19.77;6.57;;;;;;;19.27;39.70;97045.56;10223598;28;20462;-58
2022/04/12 07:28:56;;;;;;;18.40;6.40;;;;;;;19.29;39.82;97054.16;10217935;29;20066;-57
2022/04/12 07:34:15;;;;;;;17.10;5.72;;;;;;;19.30;39.85;97057.66;10200018;29;20427;-57
2022/04/12 07:39:35;;;;;;;14.95;5.47;;;;;;;19.30;39.74;97054.94;10178152;29;20488;-57
2022/04/12 07:44:54;;;;;;;16.95;5.70;;;;;;;19.32;40.14;97058.13;10204700;29;20055;-57
2022/04/12 07:50:14;;;;;;;13.63;5.72;;;;;;;19.32;40.18;97063.53;10203581;28;20044;-57
2022/04/12 07:55:33;;;;;;;11.93;5.50;;;;;;;19.33;40.26;97059.72;10232018;29;20079;-57
2022/04/12 08:00:52;;;;;;;15.13;6.00;;;;;;;19.34;40.40;97053.19;10246500;29;20423;-55
2022/04/12 08:06:11;;;;;;;20.08;6.78;;;;;;;19.36;40.74;97053.69;10230700;28;20044;-57
2022/04/12 08:11:31;;;;;;;15.65;5.90;;;;;;;19.35;40.84;97057.50;10196449;29;20510;-56
2022/04/12 08:16:52;;;;;;;14.70;5.93;;;;;;;19.36;41.16;97054.47;10199826;29;20392;-57
2022/04/12 08:22:12;;;;;;;13.43;5.63;;;;;;;19.36;41.00;97054.47;10211728;29;20059;-56
2022/04/12 08:27:32;;;;;;;13.50;5.13;;;;;;;19.38;41.11;97059.56;10210879;29;20469;-57
2022/04/12 08:32:51;;;;;;;13.55;5.00;;;;;;;19.39;41.17;97063.06;10212477;29;20047;-57
2022/04/12 08:38:11;;;;;;;14.25;5.18;;;;;;;19.39;41.19;97063.06;10224071;29;20043;-57
2022/04/12 08:43:30;;;;;;;11.57;4.90;;;;;;;19.39;41.14;97058.47;10208457;29;20075;-56
2022/04/12 08:48:51;;;;;;;14.07;5.10;;;;;;;19.40;41.26;97053.84;10197723;29;20115;-58
2022/04/12 08:54:11;;;;;;;12.30;4.85;;;;;;;19.38;41.16;97043.34;10211119;29;20407;-57
2022/04/12 08:59:32;;;;;;;11.63;5.03;;;;;;;19.39;41.38;97036.84;10193906;29;20108;-57
2022/04/12 09:04:51;;;;;;;12.55;5.18;;;;;;;19.40;41.27;97043.03;10226270;29;20059;-56
2022/04/12 09:10:11;;;;;;;9.65;4.60;;;;;;;19.40;41.36;97040.34;10250396;29;20059;-54
2022/04/12 09:15:41;;;;;;;9.68;4.55;;;;;;;19.40;41.47;97038.41;10250896;29;20047;-57
2022/04/12 09:21:19;;;;;;;10.77;4.43;;;;;;;19.40;41.35;97035.72;10250793;29;20062;-56
2022/04/12 09:26:38;;;;;;;12.20;4.70;;;;;;;19.39;41.52;97017.94;10249853;29;20115;-58
2022/04/12 09:31:58;;;;;;;7.90;3.95;;;;;;;19.40;41.51;97019.50;10249895;29;20114;-56
2022/04/12 09:37:22;;;;;;;8.77;3.83;;;;;;;19.40;41.32;97016.81;10211149;29;20058;-57
2022/04/12 09:42:50;;;;;;;7.55;3.90;;;;;;;19.40;41.57;97013.31;10209327;29;20062;-57
2022/04/12 09:48:09;;;;;;;8.98;3.75;;;;;;;19.39;41.60;97006.34;10202150;29;20052;-57
2022/04/12 09:53:38;;;;;;;8.52;3.88;;;;;;;19.40;41.59;97003.28;10189555;29;20051;-57
2022/04/12 09:59:01;;;;;;;7.80;3.65;;;;;;;19.40;41.63;97000.59;10212385;29;20514;-57
2022/04/12 10:04:20;;;;;;;6.82;3.30;;;;;;;19.40;41.65;96994.41;10205562;29;20411;-57
2022/04/12 10:09:43;;;;;;;7.07;4.13;;;;;;;19.41;41.41;96986.00;10204782;29;20048;-57
2022/04/12 10:15:03;;;;;;;7.38;3.65;;;;;;;19.40;41.71;96995.19;10230234;28;20066;-58
2022/04/12 10:20:23;;;;;;;6.40;3.63;;;;;;;19.40;41.64;96989.78;10202638;29;20047;-57
2022/04/12 10:25:42;;;;;;;8.60;3.88;;;;;;;19.41;41.56;96986.00;10208349;29;20064;-57
2022/04/12 10:31:12;;;;;;;6.25;3.38;;;;;;;19.41;41.58;96988.69;10185169;29;20052;-57
2022/04/12 10:36:58;;;;;;;9.13;3.70;;;;;;;19.41;41.66;96980.59;10238054;29;20059;-57
2022/04/12 10:42:20;;;;;;;6.43;3.13;;;;;;;19.41;41.68;96969.78;10213063;29;20503;-57
2022/04/12 10:47:43;;;;;;;7.78;3.58;;;;;;;19.41;41.60;96969.78;10202279;29;20060;-58
2022/04/12 10:53:03;;;;;;;6.25;3.25;;;;;;;19.42;41.63;96957.84;10196361;29;20074;-58
2022/04/12 10:58:30;;;;;;;7.85;3.83;;;;;;;19.41;41.75;96956.28;10220486;29;20114;-58
2022/04/12 11:03:54;;;;;;;7.15;3.58;;;;;;;19.41;41.66;96950.09;10219872;29;20055;-57
2022/04/12 11:09:16;;;;;;;6.68;3.40;;;;;;;19.41;41.82;96942.75;10228465;29;20047;-58
2022/04/12 11:14:38;;;;;;;6.38;3.40;;;;;;;19.41;41.70;96933.88;10267553;28;20039;-57
2022/04/12 11:20:00;;;;;;;5.55;3.22;;;;;;;19.40;41.72;96933.06;10195090;29;20107;-58
2022/04/12 11:25:21;;;;;;;7.70;3.30;;;;;;;19.40;41.79;96934.97;10193845;29;20103;-58
2022/04/12 11:30:41;;;;;;;4.85;3.00;;;;;;;19.39;41.72;96936.88;10185421;29;20068;-57
2022/04/12 11:36:02;;;;;;;6.57;3.17;;;;;;;19.39;41.78;96939.59;10205495;29;20063;-55
2022/04/12 11:41:21;;;;;;;6.18;3.28;;;;;;;19.38;41.78;96932.59;10216608;28;20071;-58
2022/04/12 11:46:41;;;;;;;6.22;3.33;;;;;;;19.38;41.82;96932.59;10234193;29;20059;-57
2022/04/12 11:52:02;;;;;;;4.32;2.90;;;;;;;19.39;41.92;96938.81;10206002;28;20036;-58
2022/04/12 11:57:22;;;;;;;4.95;2.78;;;;;;;19.39;41.88;96938.81;10196150;29;20111;-57
2022/04/12 12:02:43;;;;;;;5.93;2.90;;;;;;;19.38;41.80;96921.78;10198582;29;20060;-58
2022/04/12 12:08:03;;;;;;;6.18;3.33;;;;;;;19.38;41.86;96916.38;10212379;29;20056;-58
2022/04/12 12:13:26;;;;;;;4.95;3.00;;;;;;;19.38;41.80;96921.78;10223708;28;20411;-57
2022/04/12 12:18:45;;;;;;;4.82;2.83;;;;;;;19.38;42.00;96926.41;10251646;29;20408;-58
2022/04/12 12:24:06;;;;;;;4.95;2.90;;;;;;;19.38;41.96;96921.78;10232644;28;20051;-58
2022/04/12 12:29:25;;;;;;;4.35;2.90;;;;;;;19.38;41.82;96926.41;10203800;29;20070;-58
2022/04/12 12:34:45;;;;;;;5.00;2.78;;;;;;;19.37;42.00;96917.50;10223965;29;20040;-57
2022/04/12 12:40:26;;;;;;;4.22;2.70;;;;;;;19.36;41.96;96908.59;10210621;29;20052;-57
2022/04/12 12:45:46;;;;;;;3.33;2.30;;;;;;;19.38;42.13;96905.56;10193967;29;20060;-57
2022/04/12 12:51:05;;;;;;;3.88;2.50;;;;;;;19.37;41.91;96898.59;10227868;28;20044;-57
2022/04/12 12:56:37;;;;;;;4.63;2.85;;;;;;;19.36;42.01;96895.06;10209093;29;20431;-57
2022/04/12 13:01:58;;;;;;;3.70;2.47;;;;;;;19.38;41.91;96886.66;10177743;29;20444;-57
2022/04/12 13:07:17;;;;;;;4.28;2.80;;;;;;;19.38;42.32;96900.16;10199745;29;20059;-55
2022/04/12 13:12:37;;;;;;;3.83;2.25;;;;;;;19.37;41.73;96893.19;10171797;29;20103;-56
2022/04/12 13:17:57;;;;;;;3.22;2.10;;;;;;;19.37;40.80;96882.38;10178890;29;20066;-54
2022/04/12 13:23:16;;;;;;;3.53;2.22;;;;;;;19.36;40.20;96878.88;10189484;29;20126;-57
2022/04/12 13:28:35;;;;;;;4.57;1.98;;;;;;;19.35;39.53;96873.81;10207723;29;20056;-57
2022/04/12 13:33:55;;;;;;;3.85;2.28;;;;;;;19.34;38.29;96881.09;10198725;29;20066;-56
2022/04/12 13:39:14;;;;;;;3.75;1.92;;;;;;;19.34;37.61;96872.22;10207832;29;20107;-58
2022/04/12 13:44:35;;;;;;;5.25;2.13;;;;;;;19.33;37.05;96873.34;10249036;29;20047;-57
2022/04/12 13:49:56;;;;;;;3.25;1.98;;;;;;;19.32;36.17;96869.03;10249450;29;20063;-57
2022/04/12 13:55:15;;;;;;;5.43;2.10;;;;;;;19.32;35.81;96863.63;10217555;29;20103;-56
2022/04/12 14:00:35;;;;;;;3.08;1.80;;;;;;;19.32;35.39;96863.63;10209021;29;20455;-57
2022/04/12 14:05:55;;;;;;;2.88;1.85;;;;;;;19.30;35.08;96861.25;10187367;29;20503;-56
2022/04/12 14:11:15;;;;;;;2.80;1.60;;;;;;;19.31;34.74;96856.66;10195341;29;20479;-53
2022/04/12 14:16:35;;;;;;;4.18;1.80;;;;;;;19.30;34.50;96849.66;10243726;29;20055;-57
2022/04/12 14:21:54;;;;;;;2.63;1.48;;;;;;;19.30;34.45;96860.47;10217219;29;20051;-56
2022/04/12 14:27:17;;;;;;;1.85;1.48;;;;;;;19.30;34.19;96853.16;10215664;29;20063;-57
2022/04/12 14:32:37;;;;;;;2.60;1.92;;;;;;;19.29;33.89;96859.69;10208697;29;20476;-57
2022/04/12 14:37:56;;;;;;;2.40;1.75;;;;;;;19.29;33.65;96850.78;10200852;29;20055;-55
2022/04/12 14:43:16;;;;;;;2.40;1.80;;;;;;;19.30;33.39;96850.44;10211053;29;20049;-56
2022/04/12 14:48:35;;;;;;;3.00;1.63;;;;;;;19.31;33.20;96840.44;10213195;29;20058;-55
2022/04/12 14:53:55;;;;;;;2.42;1.80;;;;;;;19.31;33.05;96845.84;10190615;29;20455;-56
2022/04/12 14:59:14;;;;;;;1.70;1.60;;;;;;;19.32;32.97;96836.63;10184154;29;20067;-55
2022/04/12 15:04:34;;;;;;;2.60;1.70;;;;;;;19.33;32.84;96838.22;10199131;29;20109;-56
2022/04/12 15:09:54;;;;;;;3.47;1.52;;;;;;;19.34;32.63;96839.78;10216995;28;20044;-53
2022/04/12 15:15:13;;;;;;;2.53;1.75;;;;;;;19.35;32.74;96841.41;10223144;28;20047;-57
2022/04/12 15:20:33;;;;;;;4.53;1.80;;;;;;;19.33;33.05;96839.00;10201300;28;21518;-57
2022/04/12 15:25:53;;;;;;;3.17;1.60;;;;;;;19.34;33.31;96840.59;10207024;29;20566;-57
2022/04/12 15:31:12;;;;;;;16.35;2.00;;;;;;;19.34;34.04;96840.59;10203180;29;20459;-58
2022/04/12 15:36:31;;;;;;;3.70;2.60;;;;;;;19.31;32.12;96840.44;10195559;29;20059;-58
2022/04/12 15:41:52;;;;;;;2.85;2.38;;;;;;;19.27;31.32;96844.91;10198561;29;20507;-57
2022/04/12 15:47:12;;;;;;;3.50;2.42;;;;;;;19.24;31.20;96838.22;10204390;29;20068;-57
2022/04/12 15:52:32;;;;;;;4.35;2.40;;;;;;;19.21;30.43;96832.66;10190202;29;20488;-57
2022/04/12 15:57:52;;;;;;;3.53;2.33;;;;;;;19.18;30.27;96844.91;10208417;28;20506;-57
2022/04/12 16:03:11;;;;;;;2.58;1.90;;;;;;;19.16;30.87;96839.81;10203196;28;20044;-58
2022/04/12 16:08:30;;;;;;;5.63;1.83;;;;;;;19.18;31.27;96842.22;10202237;28;20066;-58
2022/04/12 16:13:49;;;;;;;3.33;1.90;;;;;;;19.20;32.14;96839.97;10191889;29;20055;-58
2022/04/12 16:19:09;;;;;;;2.00;1.40;;;;;;;19.21;33.26;96844.28;10198164;29;20500;-58
2022/04/12 16:24:29;;;;;;;2.25;1.40;;;;;;;19.21;33.90;96838.88;10189683;29;20051;-58
2022/04/12 16:29:51;;;;;;;1.50;1.30;;;;;;;19.22;34.58;96839.66;10200536;29;20115;-57
2022/04/12 16:35:10;;;;;;;3.58;1.30;;;;;;;19.22;35.12;96847.78;10205134;29;20147;-56
2022/04/12 16:40:31;;;;;;;1.48;1.20;;;;;;;19.24;35.73;96862.53;10215673;29;20060;-57
2022/04/12 16:45:50;;;;;;;1.95;1.20;;;;;;;19.23;36.35;96854.75;10203809;28;20116;-57
2022/04/12 16:51:09;;;;;;;3.20;1.30;;;;;;;19.22;36.88;96853.97;10181896;29;20059;-58
2022/04/12 16:56:29;;;;;;;1.75;1.10;;;;;;;19.23;37.03;96860.16;10189577;28;20048;-56
2022/04/12 17:01:49;;;;;;;1.10;1.00;;;;;;;19.22;37.66;96863.97;10200947;29;20055;-58
2022/04/12 17:07:09;;;;;;;1.27;1.00;;;;;;;19.21;37.84;96856.97;10189350;29;20126;-58
2022/04/12 17:12:30;;;;;;;1.92;1.10;;;;;;;19.21;38.34;96856.97;10176451;29;20514;-58
2022/04/12 17:17:50;;;;;;;2.38;1.20;;;;;;;19.21;38.35;96863.19;10178279;29;20059;-57
2022/04/12 17:23:09;;;;;;;1.73;1.15;;;;;;;19.21;38.69;96856.97;10200834;29;20463;-58
2022/04/12 17:28:29;;;;;;;1.10;1.00;;;;;;;19.21;38.77;96862.38;10179990;29;20413;-58
2022/04/12 17:33:49;;;;;;;1.40;1.05;;;;;;;19.18;38.97;96869.22;10208016;29;20063;-56
2022/04/12 17:39:10;;;;;;;1.88;1.15;;;;;;;19.16;38.92;96866.84;10217965;29;20047;-58
2022/04/12 17:44:29;;;;;;;35.60;17.10;;;;;;;19.15;40.17;96867.97;10171439;29;20118;-59
2022/04/12 17:49:49;;;;;;;8.32;4.90;;;;;;;19.16;40.91;96866.03;10204856;29;20122;-58
2022/04/12 17:55:09;;;;;;;7.43;3.85;;;;;;;19.16;41.46;96879.53;10189523;29;20048;-58
2022/04/12 18:00:29;;;;;;;14.82;6.40;;;;;;;19.15;42.08;96884.16;10196500;29;20496;-55
2022/04/12 18:05:48;;;;;;;6.22;3.20;;;;;;;19.14;42.68;96892.56;10177844;29;20393;-57
2022/04/12 18:11:08;;;;;;;14.77;2.95;;;;;;;19.15;42.82;96886.88;10207476;29;20044;-54
2022/04/12 18:16:27;;;;;;;10.77;2.50;;;;;;;19.17;43.24;96883.84;10196071;29;20055;-54
2022/04/12 18:21:47;;;;;;;10.52;2.70;;;;;;;19.16;43.81;96888.44;10207336;29;20050;-55
2022/04/12 18:27:07;;;;;;;9.15;3.17;;;;;;;19.13;43.74;96889.09;10181758;29;20432;-58
2022/04/12 18:32:27;;;;;;;9.45;2.47;;;;;;;19.16;44.22;96901.16;10191209;29;20063;-49
2022/04/12 18:37:47;;;;;;;8.00;2.00;;;;;;;19.13;44.48;96893.69;10232038;28;20048;-50
2022/04/12 18:43:07;;;;;;;7.95;3.08;;;;;;;19.12;43.42;96895.59;10182260;29;20056;-50
2022/04/12 18:48:27;;;;;;;13.02;3.38;;;;;;;19.12;44.14;96892.88;10189556;29;20055;-50
2022/04/12 18:53:46;;;;;;;7.95;3.17;;;;;;;19.11;44.12;96896.72;10192335;29;20490;-57
2022/04/12 18:59:06;;;;;;;6.05;2.83;;;;;;;19.12;44.43;96895.59;10214385;29;20055;-57
2022/04/12 19:04:26;;;;;;;6.95;2.75;;;;;;;19.13;45.18;96899.06;10193550;29;20423;-59
2022/04/12 19:09:45;;;;;;;10.70;2.85;;;;;;;19.13;45.49;96893.69;10188457;29;20052;-61
2022/04/12 19:15:06;;;;;;;9.07;2.90;;;;;;;19.13;45.61;96894.50;10199519;29;20416;-51
2022/04/12 19:20:26;;;;;;;4.68;2.50;;;;;;;19.15;45.88;96902.25;10201575;29;20074;-56
2022/04/12 19:25:46;;;;;;;6.43;3.17;;;;;;;19.14;45.94;96903.38;10205483;29;20059;-51
2022/04/12 19:31:06;;;;;;;7.03;2.78;;;;;;;19.15;46.22;96905.75;10197463;29;20056;-56
2022/04/12 19:36:26;;;;;;;7.88;2.65;;;;;;;19.14;46.24;96908.78;10210060;28;20069;-55
2022/04/12 19:41:46;;;;;;;6.70;2.50;;;;;;;19.13;46.32;96910.69;10225370;28;20076;-57
2022/04/12 19:47:06;;;;;;;5.53;2.33;;;;;;;19.13;46.28;96910.69;10192894;28;20040;-57
2022/04/12 19:52:26;;;;;;;8.55;2.53;;;;;;;19.12;46.30;96913.72;10199200;28;20432;-57
2022/04/12 19:57:46;;;;;;;8.43;2.58;;;;;;;19.14;46.71;96906.88;10198452;29;20083;-58
2022/04/12 20:03:06;;;;;;;7.80;2.60;;;;;;;19.13;46.65;96910.69;10191135;29;20511;-58
2022/04/12 20:08:26;;;;;;;6.35;2.53;;;;;;;19.13;46.66;96913.41;10205685;29;20058;-58
2022/04/12 20:13:46;;;;;;;8.07;2.58;;;;;;;19.13;46.87;96907.19;10185320;29;20397;-56
2022/04/12 20:19:05;;;;;;;7.53;2.35;;;;;;;19.12;47.06;96909.09;10189390;28;20777;-57
2022/04/12 20:24:25;;;;;;;7.50;2.55;;;;;;;19.13;47.12;96904.47;10178616;29;20058;-58
2022/04/12 20:29:46;;;;;;;4.53;2.28;;;;;;;19.13;47.21;96902.59;10173575;29;20052;-58
2022/04/12 20:35:06;;;;;;;4.65;2.03;;;;;;;19.13;47.16;96908.00;10183290;29;20570;-57
2022/04/12 20:40:26;;;;;;;5.82;2.03;;;;;;;19.13;47.02;96909.88;10190467;29;20052;-57
2022/04/12 20:45:45;;;;;;;5.47;2.08;;;;;;;19.12;47.10;96902.91;10205125;28;20123;-57
2022/04/12 20:51:06;;;;;;;9.50;2.58;;;;;;;19.13;46.94;96901.78;10219032;29;20117;-58
2022/04/12 20:56:27;;;;;;;4.68;2.00;;;;;;;19.12;46.81;96903.69;10205837;29;20105;-58
2022/04/12 21:01:47;;;;;;;3.78;2.30;;;;;;;19.11;46.63;96904.81;10216924;28;20411;-57
2022/04/12 21:07:07;;;;;;;4.07;1.90;;;;;;;19.11;46.69;96907.53;10209975;29;20082;-58
2022/04/12 21:12:28;;;;;;;5.03;1.98;;;;;;;19.10;46.57;96903.22;10208743;28;20072;-57
2022/04/12 21:17:48;;;;;;;4.60;2.38;;;;;;;19.10;46.65;96902.44;10218606;29;20418;-57
2022/04/12 21:23:08;;;;;;;4.43;2.13;;;;;;;19.09;46.62;96904.34;10216196;29;20502;-58
2022/04/12 21:28:27;;;;;;;5.22;2.00;;;;;;;19.10;46.49;96905.91;10206115;29;20052;-58
2022/04/12 21:33:48;;;;;;;3.75;2.03;;;;;;;19.09;46.54;96900.81;10196568;29;20048;-58
2022/04/12 21:39:08;;;;;;;3.95;2.20;;;;;;;19.08;46.53;96901.94;10176069;29;20055;-58
2022/04/12 21:44:27;;;;;;;3.17;2.10;;;;;;;19.06;46.34;96907.66;10175126;29;20080;-58
2022/04/12 21:49:47;;;;;;;4.22;2.13;;;;;;;19.06;46.38;96913.06;10203901;29;20558;-58
2022/04/12 21:55:08;;;;;;;3.35;2.00;;;;;;;19.06;46.24;96910.38;10202126;29;20091;-58
2022/04/12 22:00:43;;;;;;;5.90;1.92;;;;;;;19.05;46.41;96908.78;10211585;29;20059;-58
2022/04/12 22:06:03;;;;;;;2.78;1.85;;;;;;;19.04;46.30;96909.91;10185668;29;20051;-58
2022/04/12 22:11:23;;;;;;;4.57;2.10;;;;;;;19.04;46.33;96901.78;10192031;29;20074;-58
2022/04/12 22:16:44;;;;;;;3.53;2.00;;;;;;;19.03;46.12;96916.38;10202965;29;20048;-57
2022/04/12 22:22:04;;;;;;;3.30;1.73;;;;;;;19.03;46.11;96912.91;10183897;29;20075;-57
2022/04/12 22:27:24;;;;;;;2.53;1.88;;;;;;;19.03;45.98;96908.28;10189872;29;20059;-57
2022/04/12 22:32:44;;;;;;;5.22;1.80;;;;;;;19.03;46.17;96918.31;10209984;29;20048;-58
2022/04/12 22:38:04;;;;;;;2.95;1.77;;;;;;;19.00;46.05;96911.63;10198515;29;20059;-58
2022/04/12 22:43:24;;;;;;;2.97;2.00;;;;;;;19.01;46.06;96913.22;10197818;29;20048;-58
2022/04/12 22:48:44;;;;;;;3.22;1.90;;;;;;;19.00;45.99;96919.75;10214413;28;20094;-57
2022/04/12 22:54:05;;;;;;;3.80;1.77;;;;;;;19.00;45.68;96921.66;10194478;29;20052;-56
2022/04/12 22:59:25;;;;;;;2.88;2.00;;;;;;;18.99;46.00;96920.84;10208644;28;20546;-57
2022/04/12 23:04:44;;;;;;;3.70;2.03;;;;;;;18.99;45.95;96920.06;10205059;28;20054;-58
2022/04/12 23:10:05;;;;;;;2.95;2.05;;;;;;;18.98;45.85;96921.19;10213974;29;20059;-58
2022/04/12 23:15:25;;;;;;;3.25;1.65;;;;;;;18.97;45.85;96917.66;10190485;29;20106;-57
2022/04/12 23:20:44;;;;;;;4.25;1.90;;;;;;;18.98;45.79;96913.06;10194729;29;20423;-58
2022/04/12 23:26:04;;;;;;;2.80;2.00;;;;;;;18.96;45.59;96918.78;10188104;28;20052;-58
2022/04/12 23:31:24;;;;;;;2.25;1.60;;;;;;;18.96;45.71;96918.78;10190575;29;20112;-58
2022/04/12 23:36:45;;;;;;;1.90;1.52;;;;;;;18.93;45.58;96906.72;10196337;29;20055;-56
2022/04/12 23:42:04;;;;;;;2.85;1.70;;;;;;;18.95;45.50;96909.09;10213245;28;20048;-55
2022/04/12 23:47:24;;;;;;;2.70;1.70;;;;;;;18.93;45.59;96901.31;10179782;29;20048;-55
2022/04/12 23:52:46;;;;;;;3.85;1.90;;;;;;;18.92;45.56;96894.31;10188539;29;20048;-56
2022/04/12 23:58:05;;;;;;;2.20;1.60;;;;;;;18.92;45.36;96891.63;10197066;29;20058;-56
